Terminal Aerodrome Forecast
Issued by NWS

Home | Current Version | Previous Version | Text Only | Print | Product List | Glossary On
Versions: 1 2 3 4 5 6 7 8 9 10 11 12 13 14 15 16 17 18
000
FTUS41 KGYX 082320
TAFRKD
TAF
KRKD 082320Z 0900/0924 02015G22KT 1SM -SN BR OVC011
      TEMPO 0900/0904 2SM -SN BR OVC025
     FM091300 03006KT P6SM OVC012
     FM092100 02010KT P6SM OVC015
      AMD LTD TO CLD VIS AND WIND=

USA.gov is the U.S. government's official web portal to all federal, state and local government web resources and services.